Time;durP1;ratioP1;P1;durP2;ratioP2;P2;SDS_P1;SDS_P2;PMS_P1;PMS_P2;Temp;Humidity;BMP_temperature;BMP_pressure;BME280_temperature;BME280_humidity;BME280_pressure;Samples;Min_cycle;Max_cycle;Signal;HPM_P1;HPM_P2
2023/06/08 00:00:11;;;;;;;15.13;10.82;;;;;;;;;;4971124;28;20027;-80
2023/06/08 00:02:37;;;;;;;13.77;11.27;;;;;;;;;;4972556;28;20045;-80
2023/06/08 00:05:04;;;;;;;17.13;12.13;;;;;;;;;;4964480;28;20045;-79
2023/06/08 00:07:34;;;;;;;13.23;11.75;;;;;;;;;;4970435;28;20048;-79
2023/06/08 00:10:00;;;;;;;17.92;11.55;;;;;;;;;;4971253;28;20029;-80
2023/06/08 00:12:27;;;;;;;15.63;11.32;;;;;;;;;;4965663;28;20422;-80
2023/06/08 00:14:53;;;;;;;14.02;11.38;;;;;;;;;;4962478;28;20035;-79
2023/06/08 00:17:19;;;;;;;16.40;11.13;;;;;;;;;;4973390;28;20063;-80
2023/06/08 00:19:45;;;;;;;16.05;11.20;;;;;;;;;;4973203;28;20041;-79
2023/06/08 00:22:12;;;;;;;13.95;11.18;;;;;;;;;;4979163;28;20038;-79
2023/06/08 00:24:38;;;;;;;13.80;10.88;;;;;;;;;;4982445;28;20578;-80
2023/06/08 00:27:05;;;;;;;12.73;11.00;;;;;;;;;;4984288;28;20035;-79
2023/06/08 00:29:32;;;;;;;14.55;11.82;;;;;;;;;;4988022;28;20045;-79
2023/06/08 00:31:58;;;;;;;15.25;11.82;;;;;;;;;;4988145;28;20171;-80
2023/06/08 00:34:25;;;;;;;16.02;11.48;;;;;;;;;;4988279;28;20027;-79
2023/06/08 00:36:51;;;;;;;19.45;12.32;;;;;;;;;;4995548;28;20038;-79
2023/06/08 00:39:17;;;;;;;17.48;11.77;;;;;;;;;;4981221;28;20031;-79
2023/06/08 00:41:43;;;;;;;15.77;11.65;;;;;;;;;;4998990;28;20030;-78
2023/06/08 00:44:09;;;;;;;15.35;12.20;;;;;;;;;;4991584;28;20049;-79
2023/06/08 00:46:36;;;;;;;15.65;12.00;;;;;;;;;;4995246;28;20030;-79
2023/06/08 00:49:03;;;;;;;19.45;12.75;;;;;;;;;;4993507;28;20198;-79
2023/06/08 00:51:34;;;;;;;14.30;11.13;;;;;;;;;;4996950;28;20031;-79
2023/06/08 00:54:04;;;;;;;16.88;12.20;;;;;;;;;;4994894;28;20107;-80
2023/06/08 00:56:32;;;;;;;16.90;11.63;;;;;;;;;;5001538;28;20034;-79
2023/06/08 00:59:02;;;;;;;14.80;11.48;;;;;;;;;;4996841;28;20007;-79
2023/06/08 01:01:29;;;;;;;16.75;11.00;;;;;;;;;;4993252;28;20152;-78
2023/06/08 01:04:05;;;;;;;14.95;11.07;;;;;;;;;;4991147;28;20221;-79
2023/06/08 01:06:31;;;;;;;15.82;11.23;;;;;;;;;;5000503;28;20019;-79
2023/06/08 01:09:21;;;;;;;14.60;11.35;;;;;;;;;;4989237;28;20035;-78
2023/06/08 01:12:06;;;;;;;14.57;11.20;;;;;;;;;;4991513;28;20042;-81
2023/06/08 01:17:52;;;;;;;17.45;11.27;;;;;;;;;;4961774;28;20035;-79
2023/06/08 01:20:24;;;;;;;18.25;12.07;;;;;;;;;;4996473;28;20047;-77
2023/06/08 01:22:56;;;;;;;17.38;12.30;;;;;;;;;;4993442;28;20019;-78
2023/06/08 01:25:23;;;;;;;16.00;11.25;;;;;;;;;;4993684;28;20058;-77
2023/06/08 01:27:49;;;;;;;15.13;11.45;;;;;;;;;;4997143;28;20049;-78
2023/06/08 01:30:15;;;;;;;14.25;11.38;;;;;;;;;;4994444;28;20026;-79
2023/06/08 01:32:43;;;;;;;17.60;10.95;;;;;;;;;;4992768;28;20035;-78
2023/06/08 01:35:10;;;;;;;17.50;11.60;;;;;;;;;;4991944;28;20081;-77
2023/06/08 01:37:43;;;;;;;16.17;11.65;;;;;;;;;;4989989;28;20030;-77
2023/06/08 01:40:13;;;;;;;14.65;11.65;;;;;;;;;;5000605;28;20034;-77
2023/06/08 01:42:40;;;;;;;17.13;11.38;;;;;;;;;;4991004;28;20022;-78
2023/06/08 01:45:10;;;;;;;16.23;11.60;;;;;;;;;;4992009;28;20042;-77
2023/06/08 01:47:41;;;;;;;15.15;11.77;;;;;;;;;;4997192;28;20027;-78
2023/06/08 01:50:08;;;;;;;14.65;11.32;;;;;;;;;;4993720;28;20030;-78
2023/06/08 01:52:34;;;;;;;16.55;12.48;;;;;;;;;;4993289;28;20051;-77
2023/06/08 01:55:00;;;;;;;16.40;11.48;;;;;;;;;;4991197;28;20090;-77
2023/06/08 01:57:26;;;;;;;14.30;12.18;;;;;;;;;;4991273;28;20027;-77
2023/06/08 01:59:52;;;;;;;13.73;11.45;;;;;;;;;;4998334;28;20026;-78
2023/06/08 02:02:18;;;;;;;15.52;11.98;;;;;;;;;;4992278;28;20062;-79
2023/06/08 02:04:45;;;;;;;14.18;11.32;;;;;;;;;;4994667;28;20022;-77
2023/06/08 02:07:11;;;;;;;13.82;11.45;;;;;;;;;;4999345;28;20082;-79
2023/06/08 02:09:37;;;;;;;14.93;11.95;;;;;;;;;;4988247;28;20019;-78
2023/06/08 02:12:06;;;;;;;13.10;11.63;;;;;;;;;;4989231;28;20035;-79
2023/06/08 02:14:32;;;;;;;15.90;12.05;;;;;;;;;;4990901;28;20027;-78
2023/06/08 02:17:00;;;;;;;14.70;12.10;;;;;;;;;;4993157;28;20022;-79
2023/06/08 02:19:26;;;;;;;15.18;12.00;;;;;;;;;;4987913;28;20031;-78
2023/06/08 02:21:52;;;;;;;16.38;11.98;;;;;;;;;;4990831;28;20058;-78
2023/06/08 02:24:19;;;;;;;18.80;11.95;;;;;;;;;;4991629;28;20025;-77
2023/06/08 02:26:45;;;;;;;18.00;12.60;;;;;;;;;;4993881;28;20034;-77
2023/06/08 02:29:11;;;;;;;15.75;11.98;;;;;;;;;;4984332;28;20038;-77
2023/06/08 02:31:37;;;;;;;16.60;11.40;;;;;;;;;;4989302;28;20030;-78
2023/06/08 02:34:03;;;;;;;19.45;11.90;;;;;;;;;;4989496;28;20026;-78
2023/06/08 02:36:31;;;;;;;15.93;12.45;;;;;;;;;;4990738;28;20039;-77
2023/06/08 02:38:58;;;;;;;12.93;11.45;;;;;;;;;;4993687;28;20061;-77
2023/06/08 02:41:26;;;;;;;16.52;12.20;;;;;;;;;;4991405;28;20043;-77
2023/06/08 02:43:52;;;;;;;18.65;11.93;;;;;;;;;;4993261;28;20022;-79
2023/06/08 02:46:18;;;;;;;17.88;11.93;;;;;;;;;;4988175;28;20034;-77
2023/06/08 02:48:44;;;;;;;16.05;11.85;;;;;;;;;;5000337;28;20086;-79
2023/06/08 02:51:10;;;;;;;15.25;12.55;;;;;;;;;;4995481;28;20034;-77
2023/06/08 02:53:37;;;;;;;15.32;11.90;;;;;;;;;;4988943;28;20023;-79
2023/06/08 02:56:03;;;;;;;17.08;12.35;;;;;;;;;;4986638;28;20027;-78
2023/06/08 02:58:31;;;;;;;19.75;12.80;;;;;;;;;;4996047;28;20026;-77
2023/06/08 03:00:59;;;;;;;21.23;13.50;;;;;;;;;;4990734;28;20059;-77
2023/06/08 03:03:27;;;;;;;18.63;13.23;;;;;;;;;;4992495;28;20058;-77
2023/06/08 03:06:00;;;;;;;17.75;11.55;;;;;;;;;;4989318;28;20027;-78
2023/06/08 03:08:27;;;;;;;14.45;11.73;;;;;;;;;;4986922;28;20035;-78
2023/06/08 03:10:55;;;;;;;17.65;13.38;;;;;;;;;;4992179;28;20026;-77
2023/06/08 03:13:22;;;;;;;14.85;12.00;;;;;;;;;;4990536;28;20027;-77
2023/06/08 03:15:48;;;;;;;14.25;12.60;;;;;;;;;;4993081;28;20054;-78
2023/06/08 03:18:16;;;;;;;16.80;12.85;;;;;;;;;;4992095;28;20111;-78
2023/06/08 03:20:43;;;;;;;20.13;14.25;;;;;;;;;;4989886;28;20059;-79
2023/06/08 03:23:10;;;;;;;18.00;13.57;;;;;;;;;;4988461;28;20035;-79
2023/06/08 03:25:36;;;;;;;20.50;13.43;;;;;;;;;;4987809;28;20093;-80
2023/06/08 03:28:03;;;;;;;19.08;15.05;;;;;;;;;;4988455;28;20030;-78
2023/06/08 03:30:31;;;;;;;22.60;14.77;;;;;;;;;;4994294;28;20086;-79
2023/06/08 03:32:59;;;;;;;20.15;14.93;;;;;;;;;;4994755;28;20026;-77
2023/06/08 03:35:25;;;;;;;19.45;13.68;;;;;;;;;;4992727;28;20031;-78
2023/06/08 03:37:52;;;;;;;16.35;13.20;;;;;;;;;;4989711;28;20101;-78
2023/06/08 03:40:17;;;;;;;18.38;13.48;;;;;;;;;;4994420;28;20058;-77
2023/06/08 03:42:44;;;;;;;24.85;14.25;;;;;;;;;;4991787;28;20026;-78
2023/06/08 03:45:10;;;;;;;15.55;12.93;;;;;;;;;;4980232;28;20317;-78
2023/06/08 03:47:36;;;;;;;18.35;13.75;;;;;;;;;;4994727;28;20026;-79
2023/06/08 03:50:02;;;;;;;22.83;14.40;;;;;;;;;;4996346;28;20026;-77
2023/06/08 03:52:29;;;;;;;18.70;13.80;;;;;;;;;;4995164;28;20022;-77
2023/06/08 03:54:55;;;;;;;18.77;14.07;;;;;;;;;;4992449;28;20023;-79
2023/06/08 03:57:21;;;;;;;17.75;13.82;;;;;;;;;;4994975;28;20042;-77
2023/06/08 03:59:47;;;;;;;23.38;14.38;;;;;;;;;;4990922;28;20055;-77
2023/06/08 04:02:13;;;;;;;17.35;14.93;;;;;;;;;;4986843;28;20031;-78
2023/06/08 04:04:39;;;;;;;20.35;14.88;;;;;;;;;;4995527;28;20034;-78
2023/06/08 04:07:05;;;;;;;18.02;14.15;;;;;;;;;;4989019;28;20055;-77
2023/06/08 04:09:31;;;;;;;18.95;14.00;;;;;;;;;;4991291;28;20034;-77
2023/06/08 04:11:57;;;;;;;22.85;14.23;;;;;;;;;;4990320;28;20412;-78
2023/06/08 04:14:24;;;;;;;19.58;15.57;;;;;;;;;;4996034;28;20027;-79
2023/06/08 04:16:50;;;;;;;20.60;14.63;;;;;;;;;;4996726;28;20014;-79
2023/06/08 04:19:16;;;;;;;23.33;14.30;;;;;;;;;;4989253;28;20027;-78
2023/06/08 04:21:42;;;;;;;20.33;15.05;;;;;;;;;;4995062;28;20042;-79
2023/06/08 04:24:08;;;;;;;22.05;14.18;;;;;;;;;;4992659;28;20031;-80
2023/06/08 04:26:35;;;;;;;21.52;14.73;;;;;;;;;;4998270;28;20146;-78
2023/06/08 04:29:03;;;;;;;27.08;15.88;;;;;;;;;;4994629;28;20035;-79
2023/06/08 04:31:30;;;;;;;20.08;14.77;;;;;;;;;;4996508;28;20050;-79
2023/06/08 04:33:56;;;;;;;25.23;15.75;;;;;;;;;;4995154;28;20038;-77
2023/06/08 04:36:23;;;;;;;22.45;15.55;;;;;;;;;;4989487;28;20008;-77
2023/06/08 04:38:49;;;;;;;27.42;16.33;;;;;;;;;;4993238;28;20089;-78
2023/06/08 04:41:18;;;;;;;26.65;15.43;;;;;;;;;;4992684;28;20027;-78
2023/06/08 04:43:45;;;;;;;21.95;14.23;;;;;;;;;;4996214;28;20038;-78
2023/06/08 04:46:13;;;;;;;21.88;15.32;;;;;;;;;;4993625;28;20039;-77
2023/06/08 04:48:39;;;;;;;20.42;14.70;;;;;;;;;;4988383;28;20050;-78
2023/06/08 04:51:09;;;;;;;22.23;13.98;;;;;;;;;;4994886;28;20046;-77
2023/06/08 04:53:37;;;;;;;20.42;14.23;;;;;;;;;;4994342;28;20031;-78
2023/06/08 04:56:04;;;;;;;18.08;13.38;;;;;;;;;;4991600;28;20278;-78
2023/06/08 04:58:31;;;;;;;20.70;14.10;;;;;;;;;;4995467;28;20091;-78
2023/06/08 05:00:57;;;;;;;21.90;14.35;;;;;;;;;;5000919;28;20058;-79
2023/06/08 05:03:25;;;;;;;16.98;14.23;;;;;;;;;;4989091;28;20039;-78
2023/06/08 05:05:55;;;;;;;18.02;13.93;;;;;;;;;;4991135;28;20050;-79
2023/06/08 05:08:21;;;;;;;23.98;14.90;;;;;;;;;;4997945;28;20088;-79
2023/06/08 05:10:47;;;;;;;17.48;13.63;;;;;;;;;;4995061;28;20031;-79
2023/06/08 05:13:13;;;;;;;18.45;14.15;;;;;;;;;;4998105;28;20041;-79
2023/06/08 05:15:42;;;;;;;17.77;13.27;;;;;;;;;;4997229;28;20027;-79
2023/06/08 05:18:08;;;;;;;23.92;14.32;;;;;;;;;;4997167;28;20031;-78
2023/06/08 05:20:34;;;;;;;18.45;13.30;;;;;;;;;;4999694;28;20039;-80
2023/06/08 05:23:00;;;;;;;18.88;12.30;;;;;;;;;;4998244;28;20125;-79
2023/06/08 05:25:26;;;;;;;20.20;13.45;;;;;;;;;;4993779;28;20027;-79
2023/06/08 05:27:52;;;;;;;23.17;13.95;;;;;;;;;;4997286;28;20031;-79
2023/06/08 05:30:18;;;;;;;17.42;13.25;;;;;;;;;;4996661;28;20123;-79
2023/06/08 05:32:48;;;;;;;18.27;13.73;;;;;;;;;;4998393;28;20035;-79
2023/06/08 05:35:16;;;;;;;19.75;13.30;;;;;;;;;;4996142;28;20095;-79
2023/06/08 05:37:42;;;;;;;17.15;12.57;;;;;;;;;;4994534;28;20034;-80
2023/06/08 05:40:09;;;;;;;19.55;12.38;;;;;;;;;;4993849;28;20053;-79
2023/06/08 05:42:35;;;;;;;19.52;12.13;;;;;;;;;;4989147;28;20023;-80
2023/06/08 05:45:01;;;;;;;19.60;12.45;;;;;;;;;;4985555;28;20078;-80
2023/06/08 05:47:29;;;;;;;16.90;11.63;;;;;;;;;;4976452;28;20050;-80
2023/06/08 05:49:55;;;;;;;16.60;11.48;;;;;;;;;;4981019;28;20025;-80
2023/06/08 05:52:21;;;;;;;15.20;10.30;;;;;;;;;;4985157;28;20055;-81
2023/06/08 05:54:47;;;;;;;14.55;10.70;;;;;;;;;;4977898;28;20039;-81
2023/06/08 05:57:13;;;;;;;13.82;10.13;;;;;;;;;;4976548;28;20038;-81
2023/06/08 05:59:42;;;;;;;17.77;10.38;;;;;;;;;;4975433;28;20037;-80
2023/06/08 06:02:08;;;;;;;15.75;10.95;;;;;;;;;;4979498;28;20110;-81
2023/06/08 06:04:35;;;;;;;18.35;11.57;;;;;;;;;;4973533;28;20059;-81
2023/06/08 06:07:02;;;;;;;16.92;10.93;;;;;;;;;;4977142;28;20539;-81
2023/06/08 06:09:28;;;;;;;15.27;11.23;;;;;;;;;;4980999;28;20039;-82
2023/06/08 06:11:53;;;;;;;12.93;9.63;;;;;;;;;;4973038;28;20039;-81
2023/06/08 06:14:19;;;;;;;15.05;10.48;;;;;;;;;;4976740;28;20038;-81
2023/06/08 06:16:45;;;;;;;13.48;10.40;;;;;;;;;;4972463;28;20115;-82
2023/06/08 06:19:11;;;;;;;16.45;10.52;;;;;;;;;;4977776;28;20039;-80
2023/06/08 06:21:37;;;;;;;18.10;10.63;;;;;;;;;;4978486;28;20105;-82
2023/06/08 06:24:04;;;;;;;14.85;9.05;;;;;;;;;;4971245;28;20031;-83
2023/06/08 06:26:29;;;;;;;16.02;9.45;;;;;;;;;;4971196;28;20067;-82
2023/06/08 06:28:55;;;;;;;13.85;8.98;;;;;;;;;;4975724;28;20145;-83
2023/06/08 06:31:21;;;;;;;14.68;8.48;;;;;;;;;;4967785;28;20050;-84
2023/06/08 06:33:47;;;;;;;12.60;8.50;;;;;;;;;;4969430;28;20026;-83
2023/06/08 06:36:13;;;;;;;10.80;8.50;;;;;;;;;;4968627;28;20142;-83
2023/06/08 06:38:40;;;;;;;16.40;8.80;;;;;;;;;;4978592;28;20567;-84
2023/06/08 06:41:06;;;;;;;15.20;8.70;;;;;;;;;;4967392;28;20038;-83
2023/06/08 06:43:33;;;;;;;14.40;9.20;;;;;;;;;;4974062;28;20023;-83
2023/06/08 06:45:59;;;;;;;14.07;9.02;;;;;;;;;;4971706;28;20035;-82
2023/06/08 06:48:25;;;;;;;14.23;9.38;;;;;;;;;;4969016;28;20031;-83
2023/06/08 06:50:51;;;;;;;15.82;8.30;;;;;;;;;;4969699;28;20107;-83
2023/06/08 06:53:17;;;;;;;13.98;7.97;;;;;;;;;;4964160;28;20922;-83
2023/06/08 06:55:43;;;;;;;12.52;7.93;;;;;;;;;;4968477;28;20046;-83
2023/06/08 06:58:10;;;;;;;13.93;9.10;;;;;;;;;;4974818;28;20026;-83
2023/06/08 07:00:39;;;;;;;14.27;7.85;;;;;;;;;;4967671;28;20069;-83
2023/06/08 07:03:06;;;;;;;12.52;8.40;;;;;;;;;;4965709;28;20031;-82
2023/06/08 07:05:32;;;;;;;12.00;7.07;;;;;;;;;;4972531;28;20053;-85
2023/06/08 07:07:58;;;;;;;12.07;8.07;;;;;;;;;;4967779;28;20027;-84
2023/06/08 07:10:24;;;;;;;11.30;8.27;;;;;;;;;;4970024;28;20026;-83
2023/06/08 07:12:50;;;;;;;12.25;9.32;;;;;;;;;;4970517;28;20053;-83
2023/06/08 07:15:18;;;;;;;11.80;8.35;;;;;;;;;;4973557;28;20026;-83
2023/06/08 07:17:45;;;;;;;14.07;8.57;;;;;;;;;;4970305;28;20030;-83
2023/06/08 07:20:12;;;;;;;16.08;7.85;;;;;;;;;;4969774;28;20035;-82
2023/06/08 07:22:38;;;;;;;20.13;9.13;;;;;;;;;;4965214;28;20117;-85
2023/06/08 07:25:05;;;;;;;10.57;7.68;;;;;;;;;;4974924;28;20031;-83
2023/06/08 07:27:31;;;;;;;11.95;8.07;;;;;;;;;;4969919;28;20129;-84
2023/06/08 07:29:57;;;;;;;15.13;6.88;;;;;;;;;;4970035;28;20054;-83
2023/06/08 07:32:23;;;;;;;9.77;7.10;;;;;;;;;;4970923;28;21398;-84
2023/06/08 07:34:50;;;;;;;9.20;6.63;;;;;;;;;;4971882;28;20027;-84
2023/06/08 07:37:16;;;;;;;13.93;8.45;;;;;;;;;;4972278;28;20042;-83
2023/06/08 07:39:42;;;;;;;13.63;9.00;;;;;;;;;;4968781;28;20026;-84
2023/06/08 07:42:08;;;;;;;11.18;6.97;;;;;;;;;;4972692;28;20427;-83
2023/06/08 07:44:34;;;;;;;8.63;6.85;;;;;;;;;;4966840;28;20031;-83
2023/06/08 07:47:03;;;;;;;12.75;8.20;;;;;;;;;;4954452;28;20026;-83
2023/06/08 07:49:29;;;;;;;10.63;6.65;;;;;;;;;;4969232;28;20058;-83
2023/06/08 07:51:57;;;;;;;8.75;6.95;;;;;;;;;;4961834;28;20027;-84
2023/06/08 07:54:24;;;;;;;10.55;7.30;;;;;;;;;;4969377;28;20030;-83
2023/06/08 07:56:53;;;;;;;8.68;7.03;;;;;;;;;;4967762;28;20049;-84
2023/06/08 07:59:19;;;;;;;10.82;6.60;;;;;;;;;;4969140;28;20094;-82
2023/06/08 08:01:45;;;;;;;11.00;7.15;;;;;;;;;;4968770;28;20045;-84
2023/06/08 08:04:11;;;;;;;7.97;6.47;;;;;;;;;;4962919;28;20530;-83
2023/06/08 08:06:37;;;;;;;8.10;6.30;;;;;;;;;;4967064;28;20236;-82
2023/06/08 08:09:03;;;;;;;9.35;6.28;;;;;;;;;;4968720;28;20031;-83
2023/06/08 08:11:29;;;;;;;8.95;6.18;;;;;;;;;;4965757;28;20105;-85
2023/06/08 08:13:56;;;;;;;9.32;6.15;;;;;;;;;;4968370;28;20034;-84
2023/06/08 08:16:22;;;;;;;9.63;6.93;;;;;;;;;;4969440;28;20871;-82
2023/06/08 08:18:48;;;;;;;8.75;5.50;;;;;;;;;;4970291;28;20076;-83
2023/06/08 08:21:14;;;;;;;12.02;6.30;;;;;;;;;;4971495;28;20027;-83
2023/06/08 08:23:43;;;;;;;6.35;5.75;;;;;;;;;;4963660;28;20035;-83
2023/06/08 08:26:09;;;;;;;9.13;6.53;;;;;;;;;;4969434;28;20260;-84
2023/06/08 08:28:41;;;;;;;6.68;5.75;;;;;;;;;;4966602;28;20037;-82
2023/06/08 08:31:07;;;;;;;9.52;5.53;;;;;;;;;;4965546;28;20033;-83
2023/06/08 08:33:33;;;;;;;9.70;5.65;;;;;;;;;;4965063;28;20035;-83
2023/06/08 08:36:01;;;;;;;7.40;5.35;;;;;;;;;;4965722;28;20025;-84
2023/06/08 08:38:27;;;;;;;7.60;5.90;;;;;;;;;;4967958;28;20622;-83
2023/06/08 08:40:55;;;;;;;10.20;5.50;;;;;;;;;;4966395;28;20062;-84
2023/06/08 08:43:27;;;;;;;12.55;5.72;;;;;;;;;;4965474;28;20212;-83
2023/06/08 08:45:53;;;;;;;7.00;5.32;;;;;;;;;;4968545;28;20030;-83
2023/06/08 08:48:22;;;;;;;7.72;5.60;;;;;;;;;;4965685;28;20031;-83
2023/06/08 08:50:57;;;;;;;7.03;5.75;;;;;;;;;;4968666;28;20033;-83
2023/06/08 08:53:30;;;;;;;8.23;5.55;;;;;;;;;;4964018;28;20488;-84
2023/06/08 08:56:03;;;;;;;9.43;5.47;;;;;;;;;;4965280;28;20589;-83
2023/06/08 08:58:30;;;;;;;7.75;5.95;;;;;;;;;;4974140;28;20034;-83
2023/06/08 09:00:56;;;;;;;6.85;5.68;;;;;;;;;;4968018;28;20151;-83
2023/06/08 09:03:22;;;;;;;7.75;5.57;;;;;;;;;;4972920;28;20066;-82
2023/06/08 09:05:51;;;;;;;9.52;4.97;;;;;;;;;;4976888;28;20038;-83
2023/06/08 09:08:17;;;;;;;7.85;5.40;;;;;;;;;;4970202;28;20061;-83
2023/06/08 09:10:43;;;;;;;11.13;6.25;;;;;;;;;;4975571;28;20023;-83
2023/06/08 09:13:19;;;;;;;7.20;5.22;;;;;;;;;;4969903;28;20038;-84
2023/06/08 09:15:46;;;;;;;10.25;5.55;;;;;;;;;;4965513;28;20636;-83
2023/06/08 09:18:18;;;;;;;6.85;5.13;;;;;;;;;;4971560;28;20045;-83
2023/06/08 09:20:48;;;;;;;6.95;4.55;;;;;;;;;;4969372;28;20034;-83
2023/06/08 09:23:24;;;;;;;5.30;4.47;;;;;;;;;;4971718;28;20028;-83
2023/06/08 09:25:51;;;;;;;7.57;4.97;;;;;;;;;;4975687;28;20019;-83
2023/06/08 09:28:26;;;;;;;9.23;4.85;;;;;;;;;;4972074;28;20034;-83
2023/06/08 09:30:54;;;;;;;4.93;4.40;;;;;;;;;;4969975;28;20033;-83
2023/06/08 09:33:21;;;;;;;7.72;5.00;;;;;;;;;;4967022;28;20031;-83
2023/06/08 09:36:07;;;;;;;6.68;4.30;;;;;;;;;;4971533;28;20037;-82
2023/06/08 09:38:36;;;;;;;5.72;4.93;;;;;;;;;;4970534;28;20058;-83
2023/06/08 09:41:15;;;;;;;5.38;4.88;;;;;;;;;;4969599;28;20031;-82
2023/06/08 09:43:43;;;;;;;8.85;4.57;;;;;;;;;;4966681;28;20479;-82
2023/06/08 09:46:11;;;;;;;4.80;4.35;;;;;;;;;;4970444;28;20023;-84
2023/06/08 09:48:39;;;;;;;6.97;5.00;;;;;;;;;;4972225;28;20034;-83
2023/06/08 09:51:06;;;;;;;5.55;4.72;;;;;;;;;;4968471;28;20070;-83
2023/06/08 09:53:33;;;;;;;5.75;4.38;;;;;;;;;;4974031;28;20146;-83
2023/06/08 09:56:00;;;;;;;12.15;4.80;;;;;;;;;;4966384;28;20031;-83
2023/06/08 09:58:26;;;;;;;6.88;4.57;;;;;;;;;;4967927;28;20363;-83
2023/06/08 10:00:56;;;;;;;5.35;4.75;;;;;;;;;;4970051;28;20031;-84
2023/06/08 10:03:30;;;;;;;5.38;4.50;;;;;;;;;;4974592;28;20042;-83
2023/06/08 10:05:58;;;;;;;9.23;4.70;;;;;;;;;;4966477;28;20027;-84
2023/06/08 10:08:26;;;;;;;6.05;4.60;;;;;;;;;;4959371;28;20034;-83
2023/06/08 10:10:52;;;;;;;7.05;4.40;;;;;;;;;;4973081;28;20333;-84
2023/06/08 10:13:21;;;;;;;5.53;4.22;;;;;;;;;;4968566;28;20473;-84
2023/06/08 10:15:47;;;;;;;5.45;4.28;;;;;;;;;;4972075;28;20082;-83
2023/06/08 10:18:13;;;;;;;5.60;4.72;;;;;;;;;;4967191;28;20117;-84
2023/06/08 10:20:40;;;;;;;7.95;4.43;;;;;;;;;;4970740;28;20085;-84
2023/06/08 10:23:06;;;;;;;6.55;4.18;;;;;;;;;;4973427;28;20038;-83
2023/06/08 10:25:35;;;;;;;4.47;4.07;;;;;;;;;;4966804;28;20038;-84
2023/06/08 10:28:05;;;;;;;4.32;3.92;;;;;;;;;;4972614;28;20034;-83
2023/06/08 10:30:39;;;;;;;6.15;3.95;;;;;;;;;;4969354;28;20106;-85
2023/06/08 10:33:15;;;;;;;4.88;3.85;;;;;;;;;;4966985;28;20019;-84
2023/06/08 10:35:41;;;;;;;6.75;3.65;;;;;;;;;;4972002;28;20087;-83
2023/06/08 10:38:12;;;;;;;6.45;4.00;;;;;;;;;;4966514;28;20057;-82
2023/06/08 10:40:44;;;;;;;5.30;4.38;;;;;;;;;;4962857;28;20049;-83
2023/06/08 10:43:10;;;;;;;7.68;4.22;;;;;;;;;;4968503;28;20027;-83
2023/06/08 10:45:39;;;;;;;10.10;8.15;;;;;;;;;;4963934;28;20038;-85
2023/06/08 10:48:11;;;;;;;8.70;4.32;;;;;;;;;;4964275;28;20031;-84
2023/06/08 10:50:45;;;;;;;5.05;3.90;;;;;;;;;;4964446;28;20037;-83
2023/06/08 10:53:11;;;;;;;4.72;3.90;;;;;;;;;;4972660;28;20077;-84
2023/06/08 10:55:37;;;;;;;4.32;3.83;;;;;;;;;;4970949;28;20037;-84
2023/06/08 10:58:22;;;;;;;5.03;4.20;;;;;;;;;;4968038;28;20059;-83
2023/06/08 11:00:52;;;;;;;5.03;4.53;;;;;;;;;;4966489;28;20026;-83
2023/06/08 11:03:20;;;;;;;4.18;3.78;;;;;;;;;;4966447;28;20049;-81
2023/06/08 11:05:49;;;;;;;4.93;4.40;;;;;;;;;;4969278;28;20030;-84
2023/06/08 11:08:15;;;;;;;6.70;4.32;;;;;;;;;;4969635;28;20349;-83
2023/06/08 11:10:42;;;;;;;5.13;4.60;;;;;;;;;;4962952;28;20068;-83
2023/06/08 11:13:16;;;;;;;6.93;4.50;;;;;;;;;;4972602;28;20031;-83
2023/06/08 11:15:43;;;;;;;5.75;4.70;;;;;;;;;;4965949;28;20030;-82
2023/06/08 11:18:12;;;;;;;6.57;4.32;;;;;;;;;;4971721;28;20875;-83
2023/06/08 11:20:39;;;;;;;6.57;4.70;;;;;;;;;;4966033;28;20031;-83
2023/06/08 11:23:06;;;;;;;5.07;4.55;;;;;;;;;;4976969;28;20022;-82
2023/06/08 11:25:33;;;;;;;6.70;4.47;;;;;;;;;;4967328;28;20424;-83
2023/06/08 11:27:59;;;;;;;5.65;4.70;;;;;;;;;;4970626;28;20042;-82
2023/06/08 11:30:29;;;;;;;5.20;4.70;;;;;;;;;;4970338;28;20019;-82
2023/06/08 11:32:58;;;;;;;5.57;4.82;;;;;;;;;;4969759;28;20111;-83
2023/06/08 11:35:26;;;;;;;6.45;4.57;;;;;;;;;;4965750;28;20081;-83
2023/06/08 11:37:54;;;;;;;6.13;4.57;;;;;;;;;;4967669;28;20110;-83
2023/06/08 11:40:20;;;;;;;5.82;5.10;;;;;;;;;;4966290;28;20028;-84
2023/06/08 11:42:47;;;;;;;8.27;4.38;;;;;;;;;;4967196;28;20031;-84
2023/06/08 11:45:13;;;;;;;5.72;4.85;;;;;;;;;;4963800;28;20170;-82
2023/06/08 11:47:43;;;;;;;6.10;4.40;;;;;;;;;;4967569;28;20031;-82
2023/06/08 11:50:10;;;;;;;8.25;4.88;;;;;;;;;;4968392;28;20034;-83
2023/06/08 11:52:41;;;;;;;6.65;5.13;;;;;;;;;;4965100;28;20050;-83
2023/06/08 11:55:17;;;;;;;7.30;4.78;;;;;;;;;;4968944;28;20444;-85
2023/06/08 11:57:49;;;;;;;6.95;4.63;;;;;;;;;;4963407;28;20037;-84
2023/06/08 12:00:15;;;;;;;5.65;5.00;;;;;;;;;;4969059;28;20042;-84
2023/06/08 12:02:41;;;;;;;6.47;5.05;;;;;;;;;;4962410;28;20031;-83
2023/06/08 12:05:15;;;;;;;6.70;4.78;;;;;;;;;;4969874;28;20106;-82
2023/06/08 12:07:52;;;;;;;5.55;4.97;;;;;;;;;;4962870;28;20047;-83
2023/06/08 12:10:18;;;;;;;5.03;4.40;;;;;;;;;;4970965;28;20061;-84
2023/06/08 12:12:44;;;;;;;8.82;5.13;;;;;;;;;;4961838;28;20479;-85
2023/06/08 12:15:15;;;;;;;5.80;4.82;;;;;;;;;;4967269;28;20030;-85
2023/06/08 12:17:41;;;;;;;5.95;5.32;;;;;;;;;;4972599;28;20030;-83
2023/06/08 12:20:08;;;;;;;8.75;4.78;;;;;;;;;;4965729;28;20432;-84
2023/06/08 12:22:34;;;;;;;7.13;4.80;;;;;;;;;;4972913;28;20077;-83
2023/06/08 12:25:00;;;;;;;7.13;4.80;;;;;;;;;;4967400;28;20448;-82
2023/06/08 12:27:29;;;;;;;6.97;5.47;;;;;;;;;;4969166;28;20027;-81
2023/06/08 12:29:56;;;;;;;6.85;4.53;;;;;;;;;;4966279;28;20023;-83
2023/06/08 12:32:23;;;;;;;6.60;5.07;;;;;;;;;;4967264;28;20086;-84
2023/06/08 12:34:49;;;;;;;5.43;4.68;;;;;;;;;;4972203;28;20480;-83
2023/06/08 12:37:15;;;;;;;7.93;5.35;;;;;;;;;;4979605;28;20090;-84
2023/06/08 12:39:42;;;;;;;6.78;5.20;;;;;;;;;;4969085;28;20027;-82
2023/06/08 12:42:08;;;;;;;7.30;4.90;;;;;;;;;;4972190;28;20075;-81
2023/06/08 12:44:34;;;;;;;8.73;5.05;;;;;;;;;;4971305;28;20276;-83
2023/06/08 12:47:01;;;;;;;7.28;5.28;;;;;;;;;;4971262;28;20038;-82
2023/06/08 12:49:27;;;;;;;5.80;4.63;;;;;;;;;;4969945;28;20125;-83
2023/06/08 12:51:54;;;;;;;7.47;4.72;;;;;;;;;;4967905;28;20031;-83
2023/06/08 12:54:20;;;;;;;7.90;5.10;;;;;;;;;;4974167;28;20066;-83
2023/06/08 12:56:46;;;;;;;5.97;5.30;;;;;;;;;;4967436;28;20038;-83
2023/06/08 12:59:12;;;;;;;8.18;6.47;;;;;;;;;;4971534;28;20035;-85
2023/06/08 13:01:38;;;;;;;7.07;6.28;;;;;;;;;;4971994;28;20027;-81
2023/06/08 13:04:04;;;;;;;8.27;6.55;;;;;;;;;;4970720;28;20110;-84
2023/06/08 13:06:32;;;;;;;9.80;7.50;;;;;;;;;;4965864;28;20031;-82
2023/06/08 13:08:58;;;;;;;9.63;6.90;;;;;;;;;;4974738;28;20026;-84
2023/06/08 13:11:24;;;;;;;7.13;6.43;;;;;;;;;;4966848;28;20086;-82
2023/06/08 13:13:50;;;;;;;7.40;5.80;;;;;;;;;;4969993;28;20035;-82
2023/06/08 13:16:16;;;;;;;7.55;6.18;;;;;;;;;;4970461;28;20025;-84
2023/06/08 13:18:42;;;;;;;7.82;6.00;;;;;;;;;;4970535;28;20766;-83
2023/06/08 13:21:08;;;;;;;8.70;5.85;;;;;;;;;;4971896;28;20070;-83
2023/06/08 13:23:34;;;;;;;8.75;4.88;;;;;;;;;;4967826;28;20062;-84
2023/06/08 13:26:00;;;;;;;10.75;5.75;;;;;;;;;;4969946;28;20031;-82
2023/06/08 13:28:26;;;;;;;6.65;5.63;;;;;;;;;;4965309;28;20026;-83
2023/06/08 13:30:55;;;;;;;6.22;5.63;;;;;;;;;;4967222;28;20057;-84
2023/06/08 13:33:21;;;;;;;10.88;7.75;;;;;;;;;;4974586;28;20023;-83
2023/06/08 13:35:47;;;;;;;10.80;7.40;;;;;;;;;;4970343;28;20043;-81
2023/06/08 13:38:13;;;;;;;12.20;7.30;;;;;;;;;;4967439;28;20055;-82
2023/06/08 13:40:39;;;;;;;10.73;7.57;;;;;;;;;;4974606;28;20118;-83
2023/06/08 13:43:12;;;;;;;13.27;8.57;;;;;;;;;;4979087;28;20031;-86
2023/06/08 13:45:38;;;;;;;10.63;8.07;;;;;;;;;;4966712;28;20118;-84
2023/06/08 13:48:04;;;;;;;12.82;9.60;;;;;;;;;;4973259;28;20031;-85
2023/06/08 13:50:30;;;;;;;18.30;10.88;;;;;;;;;;4970552;28;20031;-85
2023/06/08 13:52:57;;;;;;;14.00;11.80;;;;;;;;;;4970881;28;20086;-84
2023/06/08 13:55:26;;;;;;;13.90;10.73;;;;;;;;;;4972524;28;20014;-84
2023/06/08 13:57:52;;;;;;;16.77;13.40;;;;;;;;;;4973513;28;20342;-84
2023/06/08 14:00:24;;;;;;;17.55;12.65;;;;;;;;;;4975951;28;20027;-85
2023/06/08 14:02:52;;;;;;;21.02;13.93;;;;;;;;;;4971716;28;20030;-86
2023/06/08 14:05:20;;;;;;;17.40;15.15;;;;;;;;;;4969181;28;20031;-85
2023/06/08 14:07:50;;;;;;;16.90;11.20;;;;;;;;;;4970769;28;20065;-86
2023/06/08 14:10:16;;;;;;;17.95;13.57;;;;;;;;;;4974288;28;20547;-85
2023/06/08 14:12:43;;;;;;;21.17;17.15;;;;;;;;;;4967010;28;20061;-85
2023/06/08 14:15:09;;;;;;;18.77;14.40;;;;;;;;;;4976638;28;20037;-83
2023/06/08 14:17:35;;;;;;;19.55;15.23;;;;;;;;;;4965348;28;20042;-85
2023/06/08 14:20:01;;;;;;;21.20;18.35;;;;;;;;;;4965038;28;20798;-85
2023/06/08 14:22:29;;;;;;;21.40;18.05;;;;;;;;;;4970507;28;20027;-85
2023/06/08 14:24:55;;;;;;;17.25;14.70;;;;;;;;;;4967440;28;20431;-85
2023/06/08 14:27:21;;;;;;;20.33;16.58;;;;;;;;;;4968694;28;20023;-85
2023/06/08 14:29:47;;;;;;;16.75;14.95;;;;;;;;;;4969530;28;20086;-84
2023/06/08 14:32:13;;;;;;;21.02;14.25;;;;;;;;;;4971887;28;20062;-85